createdAt,value
2018-10-09T00:01:06.271Z,8.58
2018-10-09T00:02:16.371Z,8.76
2018-10-09T00:03:25.661Z,8.65
2018-10-09T00:04:35.750Z,8.66
2018-10-09T00:05:45.573Z,8.61
2018-10-09T00:06:55.131Z,8.59
2018-10-09T00:08:04.959Z,8.62
2018-10-09T00:09:14.122Z,8.62
2018-10-09T00:10:23.678Z,8.61
2018-10-09T00:11:33.231Z,8.62
2018-10-09T00:12:42.514Z,8.62
2018-10-09T00:13:52.336Z,8.63
2018-10-09T00:15:01.619Z,8.59
2018-10-09T00:16:10.915Z,8.61
2018-10-09T00:17:20.475Z,8.59
2018-10-09T00:18:29.756Z,8.62
2018-10-09T00:19:39.306Z,8.59
2018-10-09T00:20:49.397Z,8.58
2018-10-09T00:21:59.491Z,8.55
2018-10-09T00:23:09.050Z,8.55
2018-10-09T00:24:18.606Z,8.61
2018-10-09T00:25:28.159Z,8.56
2018-10-09T00:26:37.983Z,8.55
2018-10-09T00:27:47.804Z,8.56
2018-10-09T00:28:57.374Z,8.59
2018-10-09T00:30:06.940Z,8.56
2018-10-09T00:31:16.498Z,8.62
2018-10-09T00:32:26.588Z,8.59
2018-10-09T00:33:36.463Z,8.56
2018-10-09T00:34:46.559Z,8.53
2018-10-09T00:35:56.113Z,8.66
2018-10-09T00:37:05.941Z,8.59
2018-10-09T00:38:16.033Z,8.63
2018-10-09T00:39:25.850Z,8.58
2018-10-09T00:40:35.677Z,8.59
2018-10-09T00:41:45.233Z,8.56
2018-10-09T00:42:55.056Z,8.56
2018-10-09T00:44:04.342Z,8.52
2018-10-09T00:45:13.629Z,8.61
2018-10-09T00:46:23.503Z,8.56
2018-10-09T00:47:33.613Z,8.56
2018-10-09T00:48:43.705Z,8.61
2018-10-09T00:49:53.806Z,8.58
2018-10-09T00:51:03.897Z,8.59
2018-10-09T00:52:13.179Z,8.61
2018-10-09T00:53:23.002Z,8.58
2018-10-09T00:54:32.843Z,8.62
2018-10-09T00:55:42.130Z,8.59
2018-10-09T00:56:51.688Z,8.63
2018-10-09T00:58:00.971Z,8.58
2018-10-09T00:59:11.061Z,8.59
2018-10-09T01:00:20.617Z,8.58
2018-10-09T01:01:30.442Z,8.65
2018-10-09T01:02:39.995Z,8.63
2018-10-09T01:03:50.094Z,8.63
2018-10-09T01:04:59.922Z,8.55
2018-10-09T01:06:10.027Z,8.63
2018-10-09T01:07:20.124Z,8.62
2018-10-09T01:08:29.675Z,8.61
2018-10-09T01:09:39.240Z,8.59
2018-10-09T01:10:49.352Z,8.63
2018-10-09T01:11:58.914Z,8.68
2018-10-09T01:13:08.736Z,8.66
2018-10-09T01:14:18.291Z,8.71
2018-10-09T01:15:27.902Z,8.68
2018-10-09T01:16:37.998Z,8.71
2018-10-09T01:17:48.085Z,8.59
2018-10-09T01:18:57.650Z,8.73
2018-10-09T01:20:07.524Z,8.71
2018-10-09T01:21:17.344Z,8.76
2018-10-09T01:22:26.899Z,8.76
2018-10-09T01:23:36.730Z,8.73
2018-10-09T01:24:46.288Z,8.74
2018-10-09T01:25:56.118Z,8.76
2018-10-09T01:27:06.232Z,8.73
2018-10-09T01:28:15.791Z,8.63
2018-10-09T01:29:25.345Z,8.77
2018-10-09T01:30:34.895Z,8.66
2018-10-09T01:31:44.499Z,8.7
2018-10-09T01:32:54.594Z,8.73
2018-10-09T01:34:04.436Z,8.73
2018-10-09T01:35:14.268Z,8.73
2018-10-09T01:36:23.824Z,8.73
2018-10-09T01:37:33.433Z,8.68
2018-10-09T01:38:42.987Z,8.74
2018-10-09T01:39:52.540Z,8.63
2018-10-09T01:41:02.372Z,8.63
2018-10-09T01:42:12.206Z,8.63
2018-10-09T01:43:21.546Z,8.58
2018-10-09T01:44:31.383Z,8.62
2018-10-09T01:45:40.672Z,8.62
2018-10-09T01:46:49.956Z,8.59
2018-10-09T01:48:00.054Z,8.65
2018-10-09T01:49:09.611Z,8.53
2018-10-09T01:50:19.709Z,8.55
2018-10-09T01:51:29.808Z,8.55
2018-10-09T01:52:39.904Z,8.59
2018-10-09T01:53:49.988Z,8.55
2018-10-09T01:55:00.096Z,8.58
2018-10-09T01:56:09.921Z,8.62
2018-10-09T01:57:19.473Z,8.56
2018-10-09T01:58:29.301Z,8.56
2018-10-09T01:59:39.388Z,8.58
2018-10-09T02:00:48.936Z,8.58
2018-10-09T02:01:59.029Z,8.62
2018-10-09T02:03:09.125Z,8.58
2018-10-09T02:04:18.952Z,8.56
2018-10-09T02:05:28.781Z,8.48
2018-10-09T02:06:38.876Z,8.5
2018-10-09T02:07:48.696Z,8.44
2018-10-09T02:08:58.525Z,8.5
2018-10-09T02:10:08.348Z,8.47
2018-10-09T02:11:17.901Z,8.5
2018-10-09T02:12:27.992Z,8.4
2018-10-09T02:13:37.543Z,8.47
2018-10-09T02:14:47.368Z,8.41
2018-10-09T02:15:56.927Z,8.4
2018-10-09T02:17:07.031Z,8.41
2018-10-09T02:18:16.579Z,8.38
2018-10-09T02:19:26.409Z,8.34
2018-10-09T02:20:36.236Z,8.38
2018-10-09T02:21:46.330Z,8.3
2018-10-09T02:22:56.161Z,8.37
2018-10-09T02:24:05.443Z,8.29
2018-10-09T02:25:15.001Z,8.37
2018-10-09T02:26:24.295Z,8.33
2018-10-09T02:27:33.856Z,8.37
2018-10-09T02:28:43.406Z,8.29
2018-10-09T02:29:53.233Z,8.26
2018-10-09T02:31:03.324Z,8.29
2018-10-09T02:32:13.159Z,8.26
2018-10-09T02:33:22.482Z,8.25
2018-10-09T02:34:32.669Z,8.29
2018-10-09T02:35:42.513Z,8.23
2018-10-09T02:36:52.068Z,8.25
2018-10-09T02:38:01.898Z,8.23
2018-10-09T02:39:11.990Z,8.16
2018-10-09T02:40:21.003Z,8.19
2018-10-09T02:41:30.911Z,8.18
2018-10-09T02:42:40.740Z,8.15
2018-10-09T02:43:50.294Z,8.15
2018-10-09T02:44:59.851Z,8.18
2018-10-09T02:46:09.398Z,8.15
2018-10-09T02:47:19.235Z,8.15
2018-10-09T02:48:29.070Z,8.11
2018-10-09T02:49:39.174Z,8.15
2018-10-09T02:50:48.998Z,8.15
2018-10-09T02:51:58.821Z,8.16
2018-10-09T02:53:08.932Z,8.1
2018-10-09T02:54:19.025Z,8.1
2018-10-09T02:55:28.860Z,8.12
2018-10-09T02:56:38.683Z,8.1
2018-10-09T02:57:48.782Z,8.08
2018-10-09T02:58:58.881Z,8.12
2018-10-09T03:00:08.723Z,8.1
2018-10-09T03:01:18.553Z,8.11
2018-10-09T03:02:28.383Z,8.08
2018-10-09T03:03:38.488Z,8.12
2018-10-09T03:04:48.592Z,8.08
2018-10-09T03:05:58.688Z,8.05
2018-10-09T03:07:08.513Z,8.05
2018-10-09T03:08:18.340Z,8.12
2018-10-09T03:09:28.215Z,8.07
2018-10-09T03:10:38.309Z,8.1
2018-10-09T03:11:47.598Z,8.11
2018-10-09T03:12:57.428Z,8.1
2018-10-09T03:14:07.519Z,7.95
2018-10-09T03:15:17.345Z,8.12
2018-10-09T03:16:26.899Z,8.08
2018-10-09T03:17:36.185Z,8.07
2018-10-09T03:18:46.287Z,8.07
2018-10-09T03:19:56.112Z,7.97
2018-10-09T03:21:05.936Z,8.01
2018-10-09T03:22:15.817Z,8.05
2018-10-09T03:23:25.642Z,8.05
2018-10-09T03:24:34.925Z,7.98
2018-10-09T03:25:44.486Z,7.98
2018-10-09T03:26:54.307Z,7.98
2018-10-09T03:28:03.321Z,7.92
2018-10-09T03:29:13.150Z,8.07
2018-10-09T03:30:23.245Z,7.98
2018-10-09T03:31:32.543Z,8
2018-10-09T03:32:42.380Z,7.92
2018-10-09T03:33:51.942Z,7.92
2018-10-09T03:35:00.962Z,7.86
2018-10-09T03:36:10.255Z,7.95
2018-10-09T03:37:20.351Z,7.98
2018-10-09T03:38:30.177Z,7.83
2018-10-09T03:39:39.778Z,7.93
2018-10-09T03:40:49.871Z,7.86
2018-10-09T03:41:59.421Z,7.83
2018-10-09T03:43:09.239Z,7.93
2018-10-09T03:44:18.793Z,7.87
2018-10-09T03:45:28.889Z,7.89
2018-10-09T03:46:38.502Z,7.86
2018-10-09T03:47:48.593Z,7.82
2018-10-09T03:48:58.415Z,7.9
2018-10-09T03:50:07.698Z,7.89
2018-10-09T03:51:17.307Z,7.82
2018-10-09T03:52:26.865Z,7.82
2018-10-09T03:53:36.963Z,7.82
2018-10-09T03:54:46.518Z,7.85
2018-10-09T03:55:56.626Z,7.86
2018-10-09T03:57:06.179Z,7.89
2018-10-09T03:58:16.273Z,7.86
2018-10-09T03:59:25.827Z,7.89
2018-10-09T04:00:35.399Z,7.83
2018-10-09T04:01:45.500Z,7.83
2018-10-09T04:02:55.323Z,7.85
2018-10-09T04:04:05.414Z,7.87
2018-10-09T04:05:15.499Z,7.85
2018-10-09T04:06:25.318Z,7.8
2018-10-09T04:07:34.603Z,7.85
2018-10-09T04:08:44.701Z,7.82
2018-10-09T04:09:54.522Z,7.83
2018-10-09T04:11:04.344Z,7.82
2018-10-09T04:12:14.178Z,7.8
2018-10-09T04:13:24.013Z,7.79
2018-10-09T04:14:33.833Z,7.71
2018-10-09T04:15:43.386Z,7.74
2018-10-09T04:16:53.483Z,7.72
2018-10-09T04:18:03.315Z,7.71
2018-10-09T04:19:12.610Z,7.71
2018-10-09T04:20:22.481Z,7.71
2018-10-09T04:21:32.042Z,7.74
2018-10-09T04:22:41.327Z,7.71
2018-10-09T04:23:51.425Z,7.72
2018-10-09T04:25:01.526Z,7.77
2018-10-09T04:26:11.089Z,7.75
2018-10-09T04:27:20.652Z,7.8
2018-10-09T04:28:30.205Z,7.79
2018-10-09T04:29:40.500Z,7.79
2018-10-09T04:30:50.601Z,7.8
2018-10-09T04:32:00.696Z,7.89
2018-10-09T04:33:10.518Z,7.79
2018-10-09T04:34:20.348Z,7.83
2018-10-09T04:35:30.293Z,7.82
2018-10-09T04:36:40.302Z,7.8
2018-10-09T04:37:49.907Z,7.82
2018-10-09T04:38:59.459Z,7.82
2018-10-09T04:40:09.551Z,7.85
2018-10-09T04:41:19.645Z,7.85
2018-10-09T04:42:29.475Z,7.82
2018-10-09T04:43:39.045Z,7.8
2018-10-09T04:44:48.599Z,7.68
2018-10-09T04:45:58.422Z,7.67
2018-10-09T04:47:08.512Z,7.82
2018-10-09T04:48:18.612Z,7.8
2018-10-09T04:49:28.161Z,7.85
2018-10-09T04:50:37.985Z,7.83
2018-10-09T04:51:47.807Z,7.8
2018-10-09T04:52:57.776Z,7.83
2018-10-09T04:54:08.069Z,7.72
2018-10-09T04:55:17.626Z,7.82
2018-10-09T04:56:27.451Z,7.83
2018-10-09T04:57:37.278Z,7.79
2018-10-09T04:58:47.373Z,7.86
2018-10-09T04:59:57.465Z,7.77
2018-10-09T05:01:07.075Z,7.75
2018-10-09T05:02:16.626Z,7.8
2018-10-09T05:03:26.205Z,7.79
2018-10-09T05:04:36.034Z,7.8
2018-10-09T05:05:45.855Z,7.72
2018-10-09T05:06:55.410Z,7.71
2018-10-09T05:08:05.233Z,7.67
2018-10-09T05:09:14.520Z,7.74
2018-10-09T05:10:24.341Z,7.67
2018-10-09T05:11:33.888Z,7.67
2018-10-09T05:12:44.026Z,7.61
2018-10-09T05:13:53.310Z,7.71
2018-10-09T05:15:03.136Z,7.72
2018-10-09T05:16:12.963Z,7.74
2018-10-09T05:17:22.786Z,7.69
2018-10-09T05:18:32.072Z,7.74
2018-10-09T05:19:41.628Z,7.63
2018-10-09T05:20:51.456Z,7.67
2018-10-09T05:22:01.283Z,7.72
2018-10-09T05:23:11.250Z,7.71
2018-10-09T05:24:21.044Z,7.72
2018-10-09T05:25:30.886Z,7.63
2018-10-09T05:26:40.976Z,7.75
2018-10-09T05:27:50.794Z,7.69
2018-10-09T05:29:00.885Z,7.77
2018-10-09T05:30:10.440Z,7.79
2018-10-09T05:31:20.244Z,7.8
2018-10-09T05:32:31.010Z,7.69
2018-10-09T05:33:40.299Z,7.71
2018-10-09T05:34:50.127Z,7.74
2018-10-09T05:35:59.414Z,7.67
2018-10-09T05:37:09.234Z,7.77
2018-10-09T05:38:18.517Z,7.67
2018-10-09T05:39:28.340Z,7.67
2018-10-09T05:40:38.172Z,7.79
2018-10-09T05:41:47.514Z,7.63
2018-10-09T05:42:56.526Z,7.82
2018-10-09T05:44:06.705Z,7.74
2018-10-09T05:45:16.949Z,7.69
2018-10-09T05:46:26.780Z,7.79
2018-10-09T05:47:36.873Z,7.8
2018-10-09T05:48:46.422Z,7.85
2018-10-09T05:49:55.972Z,7.69
2018-10-09T05:51:05.789Z,7.69
2018-10-09T05:52:15.338Z,7.8
2018-10-09T05:53:25.167Z,7.69
2018-10-09T05:54:34.730Z,7.8
2018-10-09T05:55:44.556Z,7.64
2018-10-09T05:56:54.111Z,7.74
2018-10-09T05:58:04.208Z,7.8
2018-10-09T05:59:14.687Z,7.86
2018-10-09T06:00:24.781Z,7.83
2018-10-09T06:01:34.071Z,7.8
2018-10-09T06:02:43.898Z,7.82
2018-10-09T06:03:53.453Z,7.8
2018-10-09T06:05:03.324Z,7.83
2018-10-09T06:06:13.417Z,7.86
2018-10-09T06:07:22.969Z,7.89
2018-10-09T06:08:32.296Z,7.9
2018-10-09T06:09:42.401Z,7.85
2018-10-09T06:10:52.235Z,7.92
2018-10-09T06:12:02.064Z,7.75
2018-10-09T06:13:11.887Z,7.89
2018-10-09T06:14:21.982Z,7.92
2018-10-09T06:15:32.321Z,7.86
2018-10-09T06:16:42.752Z,7.87
2018-10-09T06:17:52.571Z,7.83
2018-10-09T06:19:02.395Z,8
2018-10-09T06:20:12.486Z,7.98
2018-10-09T06:21:22.636Z,7.93
2018-10-09T06:22:32.479Z,8
2018-10-09T06:23:42.036Z,8
2018-10-09T06:24:51.593Z,8.04
2018-10-09T06:26:01.148Z,8.1
2018-10-09T06:27:10.977Z,8.12
2018-10-09T06:28:21.093Z,8.11
2018-10-09T06:29:31.505Z,8.1
2018-10-09T06:30:41.609Z,8.15
2018-10-09T06:31:50.897Z,8.18
2018-10-09T06:33:00.455Z,8.18
2018-10-09T06:34:10.561Z,8.22
2018-10-09T06:35:19.755Z,8.3
2018-10-09T06:36:29.036Z,8.3
2018-10-09T06:37:38.854Z,8.33
2018-10-09T06:38:48.733Z,8.36
2018-10-09T06:39:58.287Z,8.43
2018-10-09T06:41:08.396Z,8.37
2018-10-09T06:42:18.512Z,8.41
2018-10-09T06:43:28.608Z,8.48
2018-10-09T06:44:38.161Z,8.36
2018-10-09T06:45:47.846Z,8.41
2018-10-09T06:46:57.404Z,8.43
2018-10-09T06:48:07.232Z,8.41
2018-10-09T06:49:17.078Z,8.48
2018-10-09T06:50:27.197Z,8.44
2018-10-09T06:51:36.535Z,8.59
2018-10-09T06:52:46.360Z,8.47
2018-10-09T06:53:56.816Z,8.48
2018-10-09T06:55:07.530Z,8.61
2018-10-09T06:56:16.818Z,8.56
2018-10-09T06:57:26.915Z,8.48
2018-10-09T06:58:37.007Z,8.55
2018-10-09T06:59:47.125Z,8.61
2018-10-09T07:00:56.687Z,8.56
2018-10-09T07:02:05.989Z,8.58
2018-10-09T07:03:15.828Z,8.62
2018-10-09T07:04:25.665Z,8.65
2018-10-09T07:05:35.230Z,8.63
2018-10-09T07:06:44.809Z,8.65
2018-10-09T07:07:54.922Z,8.63
2018-10-09T07:09:04.532Z,8.65
2018-10-09T07:10:14.653Z,8.8
2018-10-09T07:11:25.011Z,8.63
2018-10-09T07:12:34.691Z,8.66
2018-10-09T07:13:44.528Z,8.71
2018-10-09T07:14:54.662Z,8.74
2018-10-09T07:16:04.226Z,8.73
2018-10-09T07:17:13.691Z,8.77
2018-10-09T07:18:23.537Z,8.76
2018-10-09T07:19:33.645Z,8.79
2018-10-09T07:20:43.753Z,8.76
2018-10-09T07:21:53.066Z,8.84
2018-10-09T07:23:03.183Z,8.86
2018-10-09T07:24:12.752Z,8.84
2018-10-09T07:25:22.588Z,8.94
2018-10-09T07:26:32.712Z,8.95
2018-10-09T07:27:42.601Z,8.96
2018-10-09T07:28:52.559Z,9.02
2018-10-09T07:30:02.395Z,9.08
2018-10-09T07:31:12.235Z,9.04
2018-10-09T07:32:21.854Z,9.04
2018-10-09T07:33:31.150Z,9.26
2018-10-09T07:34:41.032Z,9.28
2018-10-09T07:35:50.877Z,9.31
2018-10-09T07:37:00.989Z,9.33
2018-10-09T07:38:10.840Z,9.32
2018-10-09T07:39:20.411Z,9.38
2018-10-09T07:40:30.524Z,9.43
2018-10-09T07:41:40.373Z,9.47
2018-10-09T07:42:49.949Z,9.4
2018-10-09T07:44:00.158Z,9.56
2018-10-09T07:45:10.387Z,9.56
2018-10-09T07:46:20.505Z,9.56
2018-10-09T07:47:30.631Z,9.57
2018-10-09T07:48:39.937Z,9.64
2018-10-09T07:49:49.779Z,9.66
2018-10-09T07:50:59.347Z,9.75
2018-10-09T07:52:09.178Z,9.79
2018-10-09T07:53:19.298Z,9.75
2018-10-09T07:54:28.880Z,9.91
2018-10-09T07:55:38.179Z,9.96
2018-10-09T07:56:47.754Z,10.01
2018-10-09T07:57:57.652Z,9.99
2018-10-09T07:59:06.949Z,10.01
2018-10-09T08:00:16.534Z,10.11
2018-10-09T08:01:26.376Z,10.18
2018-10-09T08:02:35.402Z,10.18
2018-10-09T08:03:44.973Z,10.25
2018-10-09T08:04:55.115Z,10.2
2018-10-09T08:06:04.995Z,10.25
2018-10-09T08:07:14.580Z,10.27
2018-10-09T08:08:24.415Z,10.27
2018-10-09T08:09:33.715Z,10.4
2018-10-09T08:10:43.433Z,10.38
2018-10-09T08:11:53.398Z,10.44
2018-10-09T08:13:02.965Z,10.38
2018-10-09T08:14:12.798Z,10.42
2018-10-09T08:15:22.635Z,10.53
2018-10-09T08:16:32.679Z,10.64
2018-10-09T08:17:42.527Z,10.67
2018-10-09T08:18:52.112Z,10.61
2018-10-09T08:20:01.679Z,10.73
2018-10-09T08:21:11.793Z,10.76
2018-10-09T08:22:22.247Z,10.82
2018-10-09T08:23:32.429Z,10.96
2018-10-09T08:24:42.268Z,10.88
2018-10-09T08:25:52.393Z,10.92
2018-10-09T08:27:02.240Z,11
2018-10-09T08:28:12.030Z,10.88
2018-10-09T08:29:21.075Z,10.94
2018-10-09T08:30:30.656Z,10.96
2018-10-09T08:31:40.500Z,11.03
2018-10-09T08:32:50.119Z,11.03
2018-10-09T08:33:59.413Z,11.18
2018-10-09T08:35:08.710Z,11.19
2018-10-09T08:36:18.836Z,11.24
2018-10-09T08:37:28.743Z,11.43
2018-10-09T08:38:38.196Z,11.39
2018-10-09T08:39:48.150Z,11.47
2018-10-09T08:40:57.990Z,11.57
2018-10-09T08:42:07.379Z,11.55
2018-10-09T08:43:16.969Z,11.6
2018-10-09T08:44:26.472Z,11.7
2018-10-09T08:45:36.239Z,11.79
2018-10-09T08:46:46.467Z,11.82
2018-10-09T08:47:56.400Z,11.76
2018-10-09T08:49:06.165Z,11.88
2018-10-09T08:50:16.288Z,12.02
2018-10-09T08:51:26.047Z,12.1
2018-10-09T08:52:35.889Z,12.27
2018-10-09T08:53:46.045Z,12.34
2018-10-09T08:54:56.162Z,12.32
2018-10-09T08:56:05.988Z,12.34
2018-10-09T08:57:16.181Z,12.41
2018-10-09T08:58:25.825Z,12.42
2018-10-09T08:59:36.031Z,12.45
2018-10-09T09:00:45.651Z,12.53
2018-10-09T09:01:55.574Z,12.57
2018-10-09T09:03:04.918Z,12.67
2018-10-09T09:04:14.807Z,12.64
2018-10-09T09:05:24.534Z,12.78
2018-10-09T09:06:34.016Z,12.86
2018-10-09T09:07:43.855Z,12.83
2018-10-09T09:08:53.798Z,12.78
2018-10-09T09:10:03.505Z,12.93
2018-10-09T09:11:13.222Z,13.03
2018-10-09T09:12:22.784Z,13.08
2018-10-09T09:13:32.764Z,13.03
2018-10-09T09:14:43.277Z,13.14
2018-10-09T09:15:54.101Z,13.25
2018-10-09T09:17:04.591Z,13.22
2018-10-09T09:18:14.486Z,13.33
2018-10-09T09:19:24.117Z,13.32
2018-10-09T09:20:33.989Z,13.32
2018-10-09T09:21:43.801Z,13.23
2018-10-09T09:22:54.091Z,13.36
2018-10-09T09:24:03.932Z,13.29
2018-10-09T09:25:13.561Z,13.3
2018-10-09T09:26:23.300Z,13.36
2018-10-09T09:27:32.840Z,13.33
2018-10-09T09:28:42.982Z,13.32
2018-10-09T09:29:52.823Z,13.46
2018-10-09T09:31:02.712Z,13.44
2018-10-09T09:32:12.835Z,13.44
2018-10-09T09:33:22.845Z,13.44
2018-10-09T09:34:32.956Z,13.46
2018-10-09T09:35:42.535Z,13.49
2018-10-09T09:36:52.585Z,13.55
2018-10-09T09:38:02.752Z,13.6
2018-10-09T09:39:12.843Z,13.6
2018-10-09T09:40:22.537Z,13.51
2018-10-09T09:41:32.380Z,13.55
2018-10-09T09:42:42.492Z,13.69
2018-10-09T09:43:52.065Z,13.77
2018-10-09T09:45:01.647Z,13.69
2018-10-09T09:46:11.882Z,13.77
2018-10-09T09:47:22.249Z,13.73
2018-10-09T09:48:31.825Z,13.81
2018-10-09T09:49:41.931Z,13.75
2018-10-09T09:50:51.777Z,13.82
2018-10-09T09:52:01.907Z,13.82
2018-10-09T09:53:12.200Z,14
2018-10-09T09:54:22.048Z,14.02
2018-10-09T09:55:31.891Z,14
2018-10-09T09:56:42.000Z,14.22
2018-10-09T09:57:51.857Z,14.22
2018-10-09T09:59:03.144Z,14.14
2018-10-09T10:00:12.849Z,14.17
2018-10-09T10:01:22.422Z,14.33
2018-10-09T10:02:32.539Z,14.28
2018-10-09T10:03:41.974Z,14.37
2018-10-09T10:04:52.364Z,14.51
2018-10-09T10:06:02.211Z,14.5
2018-10-09T10:07:11.792Z,14.27
2018-10-09T10:08:21.955Z,14.25
2018-10-09T10:09:31.932Z,14.42
2018-10-09T10:10:41.776Z,14.45
2018-10-09T10:11:51.347Z,14.58
2018-10-09T10:13:01.189Z,14.68
2018-10-09T10:14:11.321Z,14.65
2018-10-09T10:15:21.161Z,14.65
2018-10-09T10:16:30.999Z,14.86
2018-10-09T10:17:40.572Z,14.81
2018-10-09T10:18:50.414Z,14.84
2018-10-09T10:20:00.264Z,14.88
2018-10-09T10:21:10.392Z,15.02
2018-10-09T10:22:20.594Z,15.14
2018-10-09T10:23:30.162Z,15.14
2018-10-09T10:24:40.275Z,15.19
2018-10-09T10:25:50.118Z,15.21
2018-10-09T10:27:00.230Z,15.09
2018-10-09T10:28:09.531Z,15.17
2018-10-09T10:29:19.495Z,15.21
2018-10-09T10:30:29.147Z,15.27
2018-10-09T10:31:39.320Z,15.25
2018-10-09T10:32:49.496Z,15.31
2018-10-09T10:33:59.068Z,15.38
2018-10-09T10:35:08.642Z,15.38
2018-10-09T10:36:18.490Z,15.49
2018-10-09T10:37:28.343Z,15.47
2018-10-09T10:38:38.183Z,15.57
2018-10-09T10:39:48.327Z,15.64
2018-10-09T10:40:58.239Z,15.69
2018-10-09T10:42:08.283Z,15.72
2018-10-09T10:43:18.687Z,15.67
2018-10-09T10:44:28.277Z,15.84
2018-10-09T10:45:37.852Z,15.89
2018-10-09T10:46:47.474Z,15.89
2018-10-09T10:47:57.642Z,15.96
2018-10-09T10:49:07.973Z,15.97
2018-10-09T10:50:18.019Z,15.92
2018-10-09T10:51:27.326Z,15.9
2018-10-09T10:52:36.679Z,15.9
2018-10-09T10:53:46.256Z,15.94
2018-10-09T10:54:56.529Z,16.04
2018-10-09T10:56:06.430Z,16
2018-10-09T10:57:16.543Z,16.01
2018-10-09T10:58:26.385Z,16.04
2018-10-09T10:59:35.700Z,15.96
2018-10-09T11:00:45.269Z,15.9
2018-10-09T11:01:55.621Z,16.04
2018-10-09T11:03:05.011Z,16.05
2018-10-09T11:04:14.853Z,16.15
2018-10-09T11:05:23.613Z,16.24
2018-10-09T11:06:33.459Z,16.24
2018-10-09T11:07:42.794Z,16.27
2018-10-09T11:08:52.394Z,16.3
2018-10-09T11:10:02.239Z,16.33
2018-10-09T11:11:12.085Z,16.38
2018-10-09T11:12:22.195Z,16.38
2018-10-09T11:13:32.321Z,16.5
2018-10-09T11:14:42.042Z,16.52
2018-10-09T11:15:51.467Z,16.53
2018-10-09T11:17:01.308Z,16.57
2018-10-09T11:18:10.903Z,16.64
2018-10-09T11:19:20.744Z,16.7
2018-10-09T11:20:30.057Z,16.7
2018-10-09T11:21:40.276Z,16.71
2018-10-09T11:22:50.873Z,16.76
2018-10-09T11:24:01.005Z,16.78
2018-10-09T11:25:10.575Z,16.78
2018-10-09T11:26:19.880Z,16.88
2018-10-09T11:27:29.193Z,16.88
2018-10-09T11:28:38.506Z,16.91
2018-10-09T11:29:48.088Z,17.01
2018-10-09T11:30:57.661Z,17.03
2018-10-09T11:32:06.965Z,17.07
2018-10-09T11:33:16.539Z,17.14
2018-10-09T11:34:26.384Z,17.15
2018-10-09T11:35:36.340Z,17.15
2018-10-09T11:36:46.457Z,17.07
2018-10-09T11:37:56.574Z,17.14
2018-10-09T11:39:06.697Z,17.07
2018-10-09T11:40:16.273Z,17.08
2018-10-09T11:41:26.126Z,17.16
2018-10-09T11:42:36.298Z,17.18
2018-10-09T11:43:45.937Z,17.16
2018-10-09T11:44:56.063Z,17.16
2018-10-09T11:46:06.187Z,17.21
2018-10-09T11:47:16.033Z,17.23
2018-10-09T11:48:25.348Z,17.18
2018-10-09T11:49:35.003Z,17.16
2018-10-09T11:50:45.113Z,17.21
2018-10-09T11:51:55.177Z,17.16
2018-10-09T11:53:05.289Z,17.23
2018-10-09T11:54:15.140Z,17.22
2018-10-09T11:55:24.759Z,17.22
2018-10-09T11:56:34.381Z,17.31
2018-10-09T11:57:44.229Z,17.34
2018-10-09T11:58:53.897Z,17.54
2018-10-09T12:00:03.924Z,17.52
2018-10-09T12:01:14.041Z,17.54
2018-10-09T12:02:24.160Z,17.52
2018-10-09T12:03:34.013Z,17.63
2018-10-09T12:04:43.857Z,17.7
2018-10-09T12:05:53.218Z,17.78
2018-10-09T12:07:03.368Z,17.64
2018-10-09T12:08:13.319Z,17.68
2018-10-09T12:09:23.193Z,17.64
2018-10-09T12:10:33.077Z,17.66
2018-10-09T12:11:42.382Z,17.75
2018-10-09T12:12:51.956Z,17.77
2018-10-09T12:14:01.797Z,17.82
2018-10-09T12:15:11.657Z,17.89
2018-10-09T12:16:21.771Z,17.86
2018-10-09T12:17:31.346Z,17.92
2018-10-09T12:18:40.652Z,17.93
2018-10-09T12:19:50.501Z,17.92
2018-10-09T12:21:00.135Z,17.97
2018-10-09T12:22:10.255Z,18
2018-10-09T12:23:20.388Z,18.05
2018-10-09T12:24:30.229Z,18.07
2018-10-09T12:25:39.533Z,18.05
2018-10-09T12:26:49.659Z,18.02
2018-10-09T12:27:59.572Z,18.03
2018-10-09T12:29:08.607Z,18.03
2018-10-09T12:30:18.743Z,18.1
2018-10-09T12:31:28.315Z,18.17
2018-10-09T12:32:37.620Z,18.18
2018-10-09T12:33:47.750Z,18.29
2018-10-09T12:34:57.600Z,18.21
2018-10-09T12:36:07.727Z,18.32
2018-10-09T12:37:17.840Z,18.29
2018-10-09T12:38:27.730Z,18.29
2018-10-09T12:39:37.803Z,18.39
2018-10-09T12:40:47.384Z,18.36
2018-10-09T12:41:57.227Z,18.27
2018-10-09T12:43:07.090Z,18.25
2018-10-09T12:44:16.914Z,18.23
2018-10-09T12:45:27.005Z,18.18
2018-10-09T12:46:36.310Z,18.3
2018-10-09T12:47:45.887Z,18.3
2018-10-09T12:48:55.739Z,18.32
2018-10-09T12:50:04.878Z,18.3
2018-10-09T12:51:14.717Z,18.27
2018-10-09T12:52:24.295Z,18.3
2018-10-09T12:53:34.456Z,18.26
2018-10-09T12:54:44.295Z,18.29
2018-10-09T12:55:53.890Z,18.37
2018-10-09T12:57:03.817Z,18.39
2018-10-09T12:58:14.270Z,18.42
2018-10-09T12:59:23.571Z,18.37
2018-10-09T13:00:33.144Z,18.51
2018-10-09T13:01:42.721Z,18.52
2018-10-09T13:02:52.334Z,18.5
2018-10-09T13:04:01.984Z,18.5
2018-10-09T13:05:11.832Z,18.54
2018-10-09T13:06:21.949Z,18.58
2018-10-09T13:07:32.116Z,18.57
2018-10-09T13:08:41.690Z,18.6
2018-10-09T13:09:51.271Z,18.62
2018-10-09T13:11:01.426Z,18.7
2018-10-09T13:12:11.008Z,18.67
2018-10-09T13:13:21.125Z,18.76
2018-10-09T13:14:30.698Z,18.84
2018-10-09T13:15:40.824Z,18.7
2018-10-09T13:16:50.308Z,18.72
2018-10-09T13:17:59.485Z,18.78
2018-10-09T13:19:09.112Z,18.98
2018-10-09T13:20:18.416Z,18.92
2018-10-09T13:21:29.400Z,18.92
2018-10-09T13:22:39.338Z,18.99
2018-10-09T13:23:49.240Z,19.04
2018-10-09T13:24:59.134Z,19.13
2018-10-09T13:26:08.983Z,19.08
2018-10-09T13:27:19.188Z,19.19
2018-10-09T13:28:29.385Z,19.16
2018-10-09T13:29:39.498Z,19.19
2018-10-09T13:30:49.866Z,19.07
2018-10-09T13:32:00.226Z,19.14
2018-10-09T13:33:09.802Z,19.07
2018-10-09T13:34:19.658Z,19.1
2018-10-09T13:35:29.304Z,19.04
2018-10-09T13:36:38.665Z,19.19
2018-10-09T13:37:48.508Z,19.19
2018-10-09T13:38:58.087Z,19.31
2018-10-09T13:40:07.393Z,19.29
2018-10-09T13:41:17.506Z,19.41
2018-10-09T13:42:27.362Z,19.4
2018-10-09T13:43:37.209Z,19.41
2018-10-09T13:44:46.514Z,19.4
2018-10-09T13:45:55.827Z,19.44
2018-10-09T13:47:05.562Z,19.51
2018-10-09T13:48:15.165Z,19.48
2018-10-09T13:49:24.470Z,19.54
2018-10-09T13:50:34.568Z,19.59
2018-10-09T13:51:43.547Z,19.61
2018-10-09T13:52:53.394Z,19.51
2018-10-09T13:54:03.237Z,19.51
2018-10-09T13:55:13.504Z,19.44
2018-10-09T13:56:23.912Z,19.5
2018-10-09T13:57:33.497Z,19.51
2018-10-09T13:58:43.614Z,19.43
2018-10-09T13:59:53.196Z,19.5
2018-10-09T14:01:03.045Z,19.48
2018-10-09T14:02:12.894Z,19.46
2018-10-09T14:03:22.746Z,19.46
2018-10-09T14:04:32.869Z,19.47
2018-10-09T14:05:42.488Z,19.43
2018-10-09T14:06:52.565Z,19.43
2018-10-09T14:08:02.724Z,19.47
2018-10-09T14:09:12.596Z,19.48
2018-10-09T14:10:22.430Z,19.47
2018-10-09T14:11:31.801Z,19.4
2018-10-09T14:12:41.923Z,19.39
2018-10-09T14:13:51.505Z,19.39
2018-10-09T14:15:01.614Z,19.36
2018-10-09T14:16:12.124Z,19.36
2018-10-09T14:17:22.230Z,19.41
2018-10-09T14:18:31.805Z,19.41
2018-10-09T14:19:41.661Z,19.37
2018-10-09T14:20:51.515Z,19.39
2018-10-09T14:22:01.628Z,19.4
2018-10-09T14:23:11.643Z,19.36
2018-10-09T14:24:21.431Z,19.19
2018-10-09T14:25:31.279Z,19.25
2018-10-09T14:26:41.123Z,19.02
2018-10-09T14:27:50.977Z,19.06
2018-10-09T14:29:00.330Z,19.13
2018-10-09T14:30:09.907Z,19.06
2018-10-09T14:31:19.485Z,19.04
2018-10-09T14:32:29.340Z,19.08
2018-10-09T14:33:39.185Z,19.02
2018-10-09T14:34:49.139Z,18.99
2018-10-09T14:35:59.103Z,18.98
2018-10-09T14:37:08.678Z,19.06
2018-10-09T14:38:17.985Z,19.06
2018-10-09T14:39:27.858Z,18.98
2018-10-09T14:40:37.978Z,18.94
2018-10-09T14:41:48.095Z,19.06
2018-10-09T14:42:57.670Z,19.06
2018-10-09T14:44:08.206Z,18.91
2018-10-09T14:45:18.307Z,18.98
2018-10-09T14:46:27.929Z,18.87
2018-10-09T14:47:38.106Z,18.88
2018-10-09T14:48:48.223Z,18.94
2018-10-09T14:49:57.531Z,18.91
2018-10-09T14:51:07.385Z,18.92
2018-10-09T14:52:17.226Z,18.99
2018-10-09T14:53:27.356Z,18.99
2018-10-09T14:54:36.932Z,18.92
2018-10-09T14:55:46.778Z,18.91
2018-10-09T14:56:56.358Z,18.9
2018-10-09T14:58:06.202Z,18.87
2018-10-09T14:59:16.046Z,18.98
2018-10-09T15:00:25.892Z,18.98
2018-10-09T15:01:35.215Z,18.94
2018-10-09T15:02:45.333Z,18.98
2018-10-09T15:03:55.195Z,18.91
2018-10-09T15:05:05.307Z,19
2018-10-09T15:06:14.889Z,18.91
2018-10-09T15:07:24.786Z,18.95
2018-10-09T15:08:34.362Z,18.91
2018-10-09T15:09:44.956Z,18.87
2018-10-09T15:10:55.093Z,18.85
2018-10-09T15:12:04.938Z,18.82
2018-10-09T15:13:15.048Z,18.94
2018-10-09T15:14:24.623Z,18.87
2018-10-09T15:15:34.741Z,18.85
2018-10-09T15:16:44.567Z,18.87
2018-10-09T15:17:53.977Z,18.85
2018-10-09T15:19:03.827Z,18.81